createdAt,value
2022-12-19T11:45:49.903Z,99518.75
2022-12-19T11:48:39.035Z,99430.38
2022-12-19T11:59:59.905Z,99357.73
2022-12-19T12:16:12.552Z,99383.73
2022-12-19T12:26:41.088Z,99403.50
2022-12-19T12:35:36.473Z,99492.45
2022-12-19T12:44:46.449Z,99532.65
2022-12-19T12:48:43.075Z,99545.03
2022-12-19T12:51:57.029Z,99558.13
2022-12-19T13:02:36.394Z,99563.70
2022-12-19T13:05:36.075Z,99565.79
2022-12-19T13:15:49.129Z,99589.68
2022-12-19T13:18:33.366Z,99594.09
2022-12-19T13:21:05.619Z,99597.63
2022-12-19T13:24:16.334Z,99603.99
2022-12-19T13:26:50.568Z,99620.77
2022-12-19T13:29:53.290Z,99626.30
2022-12-19T13:32:23.447Z,99633.89
2022-12-19T13:35:01.757Z,99636.84
2022-12-19T13:39:57.593Z,99640.24
2022-12-19T13:40:51.690Z,99641.98
2022-12-19T13:43:46.863Z,99635.48
2022-12-19T13:46:28.854Z,99636.31
2022-12-19T13:49:05.945Z,99644.65
2022-12-19T13:51:45.781Z,99639.09
2022-12-19T13:54:23.978Z,99640.20
2022-12-19T13:56:54.278Z,99648.64
2022-12-19T13:59:26.241Z,99651.73
2022-12-19T14:02:06.444Z,99647.54
2022-12-19T14:04:35.292Z,99650.41
2022-12-19T14:07:06.347Z,99656.22
2022-12-19T14:11:26.841Z,99648.81
2022-12-19T14:13:51.961Z,99652.33
2022-12-19T14:15:40.646Z,99657.98
2022-12-19T14:18:44.546Z,99657.21
2022-12-19T14:22:05.899Z,99656.91
2022-12-19T14:24:17.638Z,99653.39
2022-12-19T14:28:23.964Z,99649.83
2022-12-19T14:30:19.845Z,99650.58
2022-12-19T14:33:44.636Z,99646.88
2022-12-19T14:36:05.899Z,99641.09
2022-12-19T14:39:22.829Z,99630.08
2022-12-19T14:41:40.231Z,99628.75
2022-12-19T14:52:52.417Z,99621.89
2022-12-19T14:54:02.817Z,99630.95
2022-12-19T14:54:16.267Z,99610.06
2022-12-19T14:54:31.363Z,99598.52
2022-12-19T14:58:58.315Z,99588.23
2022-12-19T15:01:29.010Z,99587.44
2022-12-19T15:04:52.764Z,99583.67
2022-12-19T15:07:07.491Z,99575.76
2022-12-19T15:11:07.603Z,99563.36
2022-12-19T15:14:51.284Z,99552.15
2022-12-19T15:16:01.406Z,99556.27
2022-12-19T15:18:40.233Z,99550.90
2022-12-19T15:21:12.531Z,99548.83
2022-12-19T15:23:44.853Z,99554.35
2022-12-19T15:26:19.302Z,99554.49
2022-12-19T15:28:52.236Z,99554.65
2022-12-19T15:31:34.615Z,99553.62
2022-12-19T15:34:34.729Z,99547.75
2022-12-19T15:37:07.760Z,99557.23
2022-12-19T15:39:39.242Z,99547.23
2022-12-19T15:42:21.570Z,99545.16
2022-12-19T15:44:52.203Z,99545.15
2022-12-19T15:47:30.088Z,99537.20
2022-12-19T15:50:02.288Z,99533.20
2022-12-19T15:52:31.365Z,99528.85
2022-12-19T15:55:03.381Z,99529.85
2022-12-19T15:57:35.429Z,99526.58
2022-12-19T16:00:07.925Z,99526.59
2022-12-19T16:05:28.595Z,99518.55
2022-12-19T16:07:58.437Z,99510.04
2022-12-19T16:10:27.580Z,99512.40
2022-12-19T16:12:57.981Z,99510.48
2022-12-19T16:15:28.850Z,99506.16
2022-12-19T16:18:00.360Z,99511.18
2022-12-19T16:20:31.247Z,99502.90
2022-12-19T16:23:00.169Z,99504.08
2022-12-19T16:25:34.095Z,99505.27
2022-12-19T16:28:04.903Z,99507.66
2022-12-19T16:30:35.270Z,99508.48
2022-12-19T16:33:03.278Z,99504.13
2022-12-19T16:36:02.928Z,99507.75
2022-12-19T16:38:21.636Z,99495.79
2022-12-19T16:40:52.305Z,99493.52
2022-12-19T16:43:29.213Z,99493.83
2022-12-19T16:46:01.435Z,99490.38
2022-12-19T16:48:31.440Z,99491.39
2022-12-19T16:51:01.208Z,99491.89
2022-12-19T16:53:30.514Z,99487.05
2022-12-19T16:56:00.757Z,99476.33
2022-12-19T16:58:30.145Z,99468.35
2022-12-19T17:00:59.445Z,99470.90
2022-12-19T17:03:35.811Z,99467.82
2022-12-19T17:06:05.220Z,99469.73
2022-12-19T17:08:34.365Z,99463.78
2022-12-19T17:11:38.285Z,99461.70
2022-12-19T17:14:13.217Z,99457.16
2022-12-19T17:16:42.353Z,99452.27
2022-12-19T17:19:19.165Z,99445.66
2022-12-19T17:21:48.747Z,99446.34
2022-12-19T17:24:18.182Z,99437.63
2022-12-19T17:26:47.248Z,99437.02
2022-12-19T17:29:16.247Z,99439.53
2022-12-19T17:31:47.868Z,99443.09
2022-12-19T17:34:22.344Z,99442.15
2022-12-19T17:36:51.614Z,99436.19
2022-12-19T17:39:22.459Z,99438.50
2022-12-19T17:41:52.588Z,99431.16
2022-12-19T17:44:21.674Z,99428.00
2022-12-19T17:46:50.961Z,99428.77
2022-12-19T17:49:25.509Z,99424.89
2022-12-19T17:51:55.552Z,99423.39
2022-12-19T17:54:25.556Z,99424.33
2022-12-19T17:56:55.148Z,99425.45
2022-12-19T17:59:24.612Z,99421.40
2022-12-19T18:01:54.320Z,99414.58
2022-12-19T18:04:24.169Z,99416.08
2022-12-19T18:06:53.258Z,99416.19
2022-12-19T18:09:24.145Z,99414.75
2022-12-19T18:11:53.362Z,99418.50
2022-12-19T18:14:22.414Z,99422.08
2022-12-19T18:16:52.061Z,99421.35
2022-12-19T18:19:24.344Z,99417.48
2022-12-19T18:21:53.373Z,99423.13
2022-12-19T18:24:22.339Z,99413.19
2022-12-19T18:26:51.361Z,99416.40
2022-12-19T18:29:20.266Z,99412.54
2022-12-19T18:31:51.231Z,99394.65
2022-12-19T18:34:26.239Z,99387.68
2022-12-19T18:36:55.385Z,99389.55
2022-12-19T18:39:26.634Z,99379.46
2022-12-19T18:42:00.287Z,99381.30
2022-12-19T18:44:29.462Z,99369.98
2022-12-19T18:46:58.571Z,99374.10
2022-12-19T18:49:34.138Z,99371.26
2022-12-19T18:52:06.531Z,99368.30
2022-12-19T18:54:36.065Z,99360.83
2022-12-19T18:57:05.011Z,99359.39
2022-12-19T18:59:33.897Z,99353.63
2022-12-19T19:02:04.215Z,99351.85
2022-12-19T19:04:33.545Z,99354.74
2022-12-19T19:07:02.415Z,99359.20
2022-12-19T19:09:31.365Z,99362.26
2022-12-19T19:12:32.603Z,99363.77
2022-12-19T19:15:01.707Z,99360.45
2022-12-19T19:17:31.248Z,99359.20
2022-12-19T19:20:03.118Z,99360.92
2022-12-19T19:22:32.446Z,99358.27
2022-12-19T19:25:01.248Z,99363.45
2022-12-19T19:27:30.153Z,99360.84
2022-12-19T19:29:59.089Z,99363.61
2022-12-19T19:32:28.143Z,99359.06
2022-12-19T19:34:57.122Z,99354.03
2022-12-19T19:37:28.007Z,99349.50
2022-12-19T19:39:57.027Z,99349.48
2022-12-19T19:42:26.000Z,99345.10
2022-12-19T19:44:55.250Z,99350.08
2022-12-19T19:47:31.141Z,99350.97
2022-12-19T19:50:00.286Z,99348.15
2022-12-19T19:52:31.898Z,99349.87
2022-12-19T19:55:00.829Z,99355.58
2022-12-19T19:57:33.361Z,99351.08
2022-12-19T20:00:03.239Z,99352.11
2022-12-19T20:02:43.414Z,99346.70
2022-12-19T20:05:12.621Z,99346.52
2022-12-19T20:07:41.589Z,99344.38
2022-12-19T20:10:12.323Z,99338.98
2022-12-19T20:12:46.059Z,99341.31
2022-12-19T20:15:17.922Z,99343.73
2022-12-19T20:17:46.818Z,99341.30
2022-12-19T20:20:15.873Z,99334.52
2022-12-19T20:22:44.823Z,99331.15
2022-12-19T20:25:13.747Z,99335.77
2022-12-19T20:27:42.763Z,99334.82
2022-12-19T20:30:13.314Z,99330.27
2022-12-19T20:32:42.626Z,99325.48
2022-12-19T20:35:14.739Z,99334.41
2022-12-19T20:37:44.319Z,99332.45
2022-12-19T20:40:13.632Z,99321.36
2022-12-19T20:42:42.663Z,99319.58
2022-12-19T20:45:11.607Z,99321.68
2022-12-19T20:47:40.463Z,99315.63
2022-12-19T20:50:12.345Z,99313.02
2022-12-19T20:52:41.504Z,99301.74
2022-12-19T20:55:11.052Z,99302.35
2022-12-19T20:57:40.430Z,99304.38
2022-12-19T21:00:12.499Z,99294.83
2022-12-19T21:03:24.992Z,99295.45
2022-12-19T21:05:30.327Z,99301.31
2022-12-19T21:07:59.159Z,99297.11
2022-12-19T21:10:27.979Z,99290.80
2022-12-19T21:12:57.087Z,99294.04
2022-12-19T21:15:25.935Z,99291.75
2022-12-19T21:17:54.749Z,99292.55
2022-12-19T21:20:24.665Z,99289.20
2022-12-19T21:22:56.060Z,99285.51
2022-12-19T21:25:25.000Z,99283.02
2022-12-19T21:27:53.725Z,99280.40
2022-12-19T21:30:23.350Z,99280.02
2022-12-19T21:32:52.220Z,99281.69
2022-12-19T21:35:21.159Z,99273.67
2022-12-19T21:37:51.373Z,99272.77
2022-12-19T21:40:20.646Z,99273.70
2022-12-19T21:42:49.382Z,99275.36
2022-12-19T21:45:18.497Z,99271.15
2022-12-19T21:47:47.244Z,99277.22
2022-12-19T21:50:16.023Z,99270.70
2022-12-19T21:52:44.940Z,99276.71
2022-12-19T21:55:13.704Z,99280.16
2022-12-19T21:57:42.962Z,99278.02
2022-12-19T22:00:13.953Z,99277.71
2022-12-19T22:03:11.640Z,99273.45
2022-12-19T22:05:35.300Z,99269.77
2022-12-19T22:08:04.208Z,99253.96
2022-12-19T22:10:33.036Z,99255.79
2022-12-19T22:13:01.872Z,99252.30
2022-12-19T22:15:30.604Z,99257.08
2022-12-19T22:17:59.803Z,99252.51
2022-12-19T22:20:29.528Z,99253.34
2022-12-19T22:22:58.351Z,99247.45
2022-12-19T22:25:27.089Z,99248.84
2022-12-19T22:27:56.653Z,99243.46
2022-12-19T22:30:25.426Z,99242.02
2022-12-19T22:32:54.377Z,99240.05
2022-12-19T22:35:23.115Z,99238.84
2022-12-19T22:37:51.947Z,99236.40
2022-12-19T22:40:20.863Z,99235.84
2022-12-19T22:46:12.779Z,99234.34
2022-12-19T22:48:45.850Z,99234.89
2022-12-19T22:51:22.932Z,99234.05
2022-12-19T22:53:55.408Z,99228.52
2022-12-19T22:56:30.104Z,99229.71
2022-12-19T22:59:06.519Z,99228.67
2022-12-19T23:01:40.868Z,99228.98
2022-12-19T23:04:15.634Z,99227.70
2022-12-19T23:06:53.965Z,99225.72
2022-12-19T23:09:26.696Z,99225.88
2022-12-19T23:11:59.082Z,99223.87
2022-12-19T23:14:33.986Z,99224.44
2022-12-19T23:17:06.501Z,99223.92
2022-12-19T23:19:38.991Z,99218.02
2022-12-19T23:22:11.318Z,99215.41
2022-12-19T23:24:44.906Z,99214.46
2022-12-19T23:27:17.541Z,99209.20
2022-12-19T23:29:51.945Z,99209.83
2022-12-19T23:32:24.852Z,99207.39
2022-12-19T23:34:57.272Z,99204.58
2022-12-19T23:37:29.772Z,99202.45
2022-12-19T23:40:02.355Z,99199.65
2022-12-19T23:42:36.454Z,99200.88
2022-12-19T23:45:10.713Z,99198.13
2022-12-19T23:47:42.979Z,99205.43
2022-12-19T23:50:15.818Z,99209.79
2022-12-19T23:52:48.139Z,99213.63
2022-12-19T23:55:21.671Z,99208.25
2022-12-19T23:57:53.936Z,99208.72
